PWSweather.com
Personal Weather Stations
Station Observations
KNCCHINA3
Red Tractor Trail, China Grove, NC 28023

Red Tractor TrailChina Grove, NC 28023

Lat: 35.59751, Lon: -80.60201

Elevation: 800

Station Type: Oregon Scientific WMR 968

http://www.joesweathergarage.com

High Low Average
Temperature 76.4°F24.7°C 42.0°F5.6°C 62.2°F16.8°C
Dew Point 56.1°F13.4°C 25.2°F-3.8°C 40.0°F4.4°C
Winds 28.9 mph 46.5 kmh 2.3 mph 3.7 kmh 8.0 mph S12.9 kmh S
Wind Gusts 48.4 mph77.9 kmh 4.0 mph6.4 kmh 17.0 mph27.4 kmh
Humidity 70% 32% 46%
Pressure 30.21 in1023.0 mb 29.71 in1006.1 mb -
Precipitation 0.00 in0.0 mm - -
Hour Temp Dew Point Humidity Winds Wind Gusts Pressure Precip Precip Rate Daily Precip Total
12:00 AM 70.1°F21.2°C 43.1°F6.2°C 38% 4.9 mph WSW7.9 kmh WSW 11.6 mph18.7 kmh 29.71 in1006.1 mb 0.00 in0.0 mm 0.00 in0.0 mm 0.00 in0.0 mm
12:05 AM 70.0°F21.1°C 43.0°F6.1°C 38% 6.8 mph W10.9 kmh W 9.4 mph15.1 kmh 29.71 in1006.1 mb 0.00 in0.0 mm 0.00 in0.0 mm 0.00 in0.0 mm
12:10 AM 70.0°F21.1°C 43.7°F6.5°C 39% 5.7 mph WSW9.2 kmh WSW 9.4 mph15.1 kmh 29.71 in1006.1 mb 0.00 in0.0 mm 0.00 in0.0 mm 0.00 in0.0 mm
12:15 AM 69.8°F21.0°C 43.5°F6.4°C 39% 4.8 mph WSW7.7 kmh WSW 9.4 mph15.1 kmh 29.71 in1006.1 mb 0.00 in0.0 mm 0.00 in0.0 mm 0.00 in0.0 mm
12:22 AM 69.8°F21.0°C 43.5°F6.4°C 39% 5.8 mph W9.3 kmh W 11.6 mph18.7 kmh 29.71 in1006.1 mb 0.00 in0.0 mm 0.00 in0.0 mm 0.00 in0.0 mm
12:27 AM 69.8°F21.0°C 43.5°F6.4°C 39% 6.5 mph WNW10.5 kmh WNW 9.8 mph15.8 kmh 29.71 in1006.1 mb 0.00 in0.0 mm 0.00 in0.0 mm 0.00 in0.0 mm
12:33 AM 69.4°F20.8°C 43.9°F6.6°C 40% 5.1 mph WSW8.2 kmh WSW 9.4 mph15.1 kmh 29.71 in1006.1 mb 0.00 in0.0 mm 0.00 in0.0 mm 0.00 in0.0 mm
12:38 AM 69.4°F20.8°C 43.9°F6.6°C 40% 5.7 mph WSW9.2 kmh WSW 8.0 mph12.9 kmh 29.71 in1006.1 mb 0.00 in0.0 mm 0.00 in0.0 mm 0.00 in0.0 mm
12:43 AM 69.4°F20.8°C 43.9°F6.6°C 40% 6.1 mph WSW9.8 kmh WSW 9.8 mph15.8 kmh 29.71 in1006.1 mb 0.00 in0.0 mm 0.00 in0.0 mm 0.00 in0.0 mm
12:48 AM 69.2°F20.7°C 44.3°F6.8°C 41% 5.4 mph SW8.7 kmh SW 9.8 mph15.8 kmh 29.71 in1006.1 mb 0.00 in0.0 mm 0.00 in0.0 mm 0.00 in0.0 mm
12:53 AM 68.7°F20.4°C 44.5°F6.9°C 42% 4.7 mph WSW7.6 kmh WSW 8.6 mph13.8 kmh 29.71 in1006.1 mb 0.00 in0.0 mm 0.00 in0.0 mm 0.00 in0.0 mm
12:59 AM 68.9°F20.5°C 44.7°F7.1°C 42% 5.5 mph WSW8.9 kmh WSW 9.4 mph15.1 kmh 29.71 in1006.1 mb 0.00 in0.0 mm 0.00 in0.0 mm 0.00 in0.0 mm
01:04 AM 68.9°F20.5°C 44.7°F7.1°C 42% 5.3 mph WSW8.5 kmh WSW 9.4 mph15.1 kmh 29.71 in1006.1 mb 0.00 in0.0 mm 0.00 in0.0 mm 0.00 in0.0 mm
01:09 AM 68.5°F20.3°C 44.4°F6.9°C 42% 5.4 mph W8.7 kmh W 9.0 mph14.5 kmh 29.74 in1007.1 mb 0.00 in0.0 mm 0.00 in0.0 mm 0.00 in0.0 mm
01:14 AM 68.3°F20.2°C 44.8°F7.1°C 43% 5.6 mph W9.0 kmh W 7.2 mph11.6 kmh 29.74 in1007.1 mb 0.00 in0.0 mm 0.00 in0.0 mm 0.00 in0.0 mm
01:19 AM 68.3°F20.2°C 44.8°F7.1°C 43% 6.2 mph W10.0 kmh W 8.6 mph13.8 kmh 29.74 in1007.1 mb 0.00 in0.0 mm 0.00 in0.0 mm 0.00 in0.0 mm
01:25 AM 68.0°F20.0°C 44.5°F6.9°C 43% 4.9 mph SW7.9 kmh SW 8.6 mph13.8 kmh 29.74 in1007.1 mb 0.00 in0.0 mm 0.00 in0.0 mm 0.00 in0.0 mm
01:30 AM 68.0°F20.0°C 45.2°F7.3°C 44% 4.7 mph W7.6 kmh W 7.6 mph12.2 kmh 29.74 in1007.1 mb 0.00 in0.0 mm 0.00 in0.0 mm 0.00 in0.0 mm
01:35 AM 67.6°F19.8°C 44.8°F7.1°C 44% 5.0 mph WSW8.0 kmh WSW 7.6 mph12.2 kmh 29.74 in1007.1 mb 0.00 in0.0 mm 0.00 in0.0 mm 0.00 in0.0 mm
01:40 AM 67.8°F19.9°C 45.0°F7.2°C 44% 5.1 mph WSW8.2 kmh WSW 7.6 mph12.2 kmh 29.74 in1007.1 mb 0.00 in0.0 mm 0.00 in0.0 mm 0.00 in0.0 mm
01:46 AM 67.3°F19.6°C 45.1°F7.3°C 45% 5.3 mph WSW8.5 kmh WSW 7.2 mph11.6 kmh 29.74 in1007.1 mb 0.00 in0.0 mm 0.00 in0.0 mm 0.00 in0.0 mm
01:51 AM 67.3°F19.6°C 45.1°F7.3°C 45% 4.7 mph SSW7.6 kmh SSW 7.2 mph11.6 kmh 29.74 in1007.1 mb 0.00 in0.0 mm 0.00 in0.0 mm 0.00 in0.0 mm
01:56 AM 66.7°F19.3°C 45.2°F7.3°C 46% 4.3 mph SW6.9 kmh SW 6.8 mph10.9 kmh 29.74 in1007.1 mb 0.00 in0.0 mm 0.00 in0.0 mm 0.00 in0.0 mm
02:01 AM 66.5°F19.2°C 45.6°F7.6°C 47% 4.4 mph SW7.1 kmh SW 6.8 mph10.9 kmh 29.74 in1007.1 mb 0.00 in0.0 mm 0.00 in0.0 mm 0.00 in0.0 mm
02:07 AM 66.5°F19.2°C 45.6°F7.6°C 47% 3.5 mph WSW5.6 kmh WSW 5.8 mph9.3 kmh 29.74 in1007.1 mb 0.00 in0.0 mm 0.00 in0.0 mm 0.00 in0.0 mm
02:12 AM 66.2°F19.0°C 45.3°F7.4°C 47% 2.8 mph SW4.5 kmh SW 5.8 mph9.3 kmh 29.74 in1007.1 mb 0.00 in0.0 mm 0.00 in0.0 mm 0.00 in0.0 mm
02:17 AM 66.0°F18.9°C 45.1°F7.3°C 47% 2.5 mph SW4.0 kmh SW 5.0 mph8.0 kmh 29.74 in1007.1 mb 0.00 in0.0 mm 0.00 in0.0 mm 0.00 in0.0 mm
02:22 AM 65.6°F18.7°C 45.3°F7.4°C 48% 2.3 mph SSW3.7 kmh SSW 5.0 mph8.0 kmh 29.74 in1007.1 mb 0.00 in0.0 mm 0.00 in0.0 mm 0.00 in0.0 mm
02:27 AM 65.3°F18.5°C 45.1°F7.3°C 48% 2.3 mph SSW3.7 kmh SSW 5.0 mph8.0 kmh 29.74 in1007.1 mb 0.00 in0.0 mm 0.00 in0.0 mm 0.00 in0.0 mm
02:32 AM 65.1°F18.4°C 45.4°F7.4°C 49% 3.3 mph SSW5.3 kmh SSW 4.4 mph7.1 kmh 29.74 in1007.1 mb 0.00 in0.0 mm 0.00 in0.0 mm 0.00 in0.0 mm
02:37 AM 64.9°F18.3°C 45.8°F7.7°C 50% 2.4 mph SSW3.9 kmh SSW 4.4 mph7.1 kmh 29.74 in1007.1 mb 0.00 in0.0 mm 0.00 in0.0 mm 0.00 in0.0 mm
02:42 AM 64.6°F18.1°C 46.1°F7.8°C 51% 3.3 mph SSW5.3 kmh SSW 5.0 mph8.0 kmh 29.74 in1007.1 mb 0.00 in0.0 mm 0.00 in0.0 mm 0.00 in0.0 mm
02:51 AM 64.2°F17.9°C 46.2°F7.9°C 52% 3.0 mph S4.8 kmh S 5.0 mph8.0 kmh 29.74 in1007.1 mb 0.00 in0.0 mm 0.00 in0.0 mm 0.00 in0.0 mm
02:56 AM 64.2°F17.9°C 46.8°F8.2°C 53% 2.7 mph SSE4.3 kmh SSE 4.0 mph6.4 kmh 29.74 in1007.1 mb 0.00 in0.0 mm 0.00 in0.0 mm 0.00 in0.0 mm
03:01 AM 64.0°F17.8°C 47.6°F8.7°C 55% 3.0 mph SSE4.8 kmh SSE 5.0 mph8.0 kmh 29.74 in1007.1 mb 0.00 in0.0 mm 0.00 in0.0 mm 0.00 in0.0 mm
03:06 AM 63.8°F17.7°C 47.9°F8.8°C 56% 2.6 mph S4.2 kmh S 5.0 mph8.0 kmh 29.74 in1007.1 mb 0.00 in0.0 mm 0.00 in0.0 mm 0.00 in0.0 mm
03:13 AM 64.0°F17.8°C 48.6°F9.2°C 57% 3.9 mph S6.3 kmh S 5.8 mph9.3 kmh 29.74 in1007.1 mb 0.00 in0.0 mm 0.00 in0.0 mm 0.00 in0.0 mm
03:18 AM 64.0°F17.8°C 48.6°F9.2°C 57% 2.8 mph S4.5 kmh S 5.4 mph8.7 kmh 29.74 in1007.1 mb 0.00 in0.0 mm 0.00 in0.0 mm 0.00 in0.0 mm
03:23 AM 63.8°F17.7°C 48.8°F9.3°C 58% 2.6 mph S4.2 kmh S 5.0 mph8.0 kmh 29.74 in1007.1 mb 0.00 in0.0 mm 0.00 in0.0 mm 0.00 in0.0 mm
03:28 AM 63.7°F17.6°C 48.7°F9.3°C 58% 2.6 mph S4.2 kmh S 5.0 mph8.0 kmh 29.74 in1007.1 mb 0.00 in0.0 mm 0.00 in0.0 mm 0.00 in0.0 mm
03:33 AM 63.7°F17.6°C 49.2°F9.6°C 59% 3.5 mph SE5.6 kmh SE 5.8 mph9.3 kmh 29.74 in1007.1 mb 0.00 in0.0 mm 0.00 in0.0 mm 0.00 in0.0 mm
03:38 AM 63.7°F17.6°C 49.2°F9.6°C 59% 2.8 mph S4.5 kmh S 5.8 mph9.3 kmh 29.74 in1007.1 mb 0.00 in0.0 mm 0.00 in0.0 mm 0.00 in0.0 mm
03:43 AM 63.3°F17.4°C 49.3°F9.6°C 60% 2.6 mph SSE4.2 kmh SSE 5.8 mph9.3 kmh 29.74 in1007.1 mb 0.00 in0.0 mm 0.00 in0.0 mm 0.00 in0.0 mm
03:48 AM 63.3°F17.4°C 49.3°F9.6°C 60% 2.9 mph SSE4.7 kmh SSE 4.4 mph7.1 kmh 29.74 in1007.1 mb 0.00 in0.0 mm 0.00 in0.0 mm 0.00 in0.0 mm
03:53 AM 62.9°F17.2°C 49.4°F9.7°C 61% 2.7 mph SSE4.3 kmh SSE 4.4 mph7.1 kmh 29.74 in1007.1 mb 0.00 in0.0 mm 0.00 in0.0 mm 0.00 in0.0 mm
03:58 AM 62.9°F17.2°C 49.4°F9.7°C 61% 2.8 mph SSE4.5 kmh SSE 4.4 mph7.1 kmh 29.74 in1007.1 mb 0.00 in0.0 mm 0.00 in0.0 mm 0.00 in0.0 mm
04:04 AM 62.9°F17.2°C 49.8°F9.9°C 62% 3.3 mph SSE5.3 kmh SSE 5.0 mph8.0 kmh 29.74 in1007.1 mb 0.00 in0.0 mm 0.00 in0.0 mm 0.00 in0.0 mm
04:08 AM 62.9°F17.2°C 50.2°F10.1°C 63% 3.1 mph SSW5.0 kmh SSW 5.4 mph8.7 kmh 29.74 in1007.1 mb 0.00 in0.0 mm 0.00 in0.0 mm 0.00 in0.0 mm
04:13 AM 62.9°F17.2°C 50.7°F10.4°C 64% 3.5 mph SSE5.6 kmh SSE 5.4 mph8.7 kmh 29.74 in1007.1 mb 0.00 in0.0 mm 0.00 in0.0 mm 0.00 in0.0 mm
04:19 AM 62.9°F17.2°C 51.1°F10.6°C 65% 3.4 mph WSW5.5 kmh WSW 5.8 mph9.3 kmh 29.74 in1007.1 mb 0.00 in0.0 mm 0.00 in0.0 mm 0.00 in0.0 mm
04:23 AM 62.9°F17.2°C 51.1°F10.6°C 65% 3.9 mph S6.3 kmh S 5.8 mph9.3 kmh 29.74 in1007.1 mb 0.00 in0.0 mm 0.00 in0.0 mm 0.00 in0.0 mm
04:29 AM 62.8°F17.1°C 51.4°F10.8°C 66% 4.4 mph SW7.1 kmh SW 5.8 mph9.3 kmh 29.74 in1007.1 mb 0.00 in0.0 mm 0.00 in0.0 mm 0.00 in0.0 mm
04:34 AM 62.9°F17.2°C 51.5°F10.8°C 66% 4.1 mph WSW6.6 kmh WSW 6.2 mph10.0 kmh 29.74 in1007.1 mb 0.00 in0.0 mm 0.00 in0.0 mm 0.00 in0.0 mm
04:39 AM 62.9°F17.2°C 51.9°F11.1°C 67% 3.9 mph WSW6.3 kmh WSW 6.2 mph10.0 kmh 29.74 in1007.1 mb 0.00 in0.0 mm 0.00 in0.0 mm 0.00 in0.0 mm
04:45 AM 63.1°F17.3°C 52.1°F11.2°C 67% 4.1 mph SW6.6 kmh SW 6.2 mph10.0 kmh 29.74 in1007.1 mb 0.00 in0.0 mm 0.00 in0.0 mm 0.00 in0.0 mm
04:50 AM 63.3°F17.4°C 52.3°F11.3°C 67% 5.4 mph W8.7 kmh W 6.8 mph10.9 kmh 29.74 in1007.1 mb 0.00 in0.0 mm 0.00 in0.0 mm 0.00 in0.0 mm
04:57 AM 63.3°F17.4°C 52.3°F11.3°C 67% 4.9 mph WSW7.9 kmh WSW 6.2 mph10.0 kmh 29.74 in1007.1 mb 0.00 in0.0 mm 0.00 in0.0 mm 0.00 in0.0 mm
05:02 AM 63.7°F17.6°C 53.1°F11.7°C 68% 6.4 mph SW10.3 kmh SW 8.0 mph12.9 kmh 29.74 in1007.1 mb 0.00 in0.0 mm 0.00 in0.0 mm 0.00 in0.0 mm
05:07 AM 63.8°F17.7°C 52.8°F11.6°C 67% 4.4 mph SW7.1 kmh SW 8.0 mph12.9 kmh 29.74 in1007.1 mb 0.00 in0.0 mm 0.00 in0.0 mm 0.00 in0.0 mm
05:12 AM 63.7°F17.6°C 52.7°F11.5°C 67% 4.3 mph S6.9 kmh S 6.8 mph10.9 kmh 29.74 in1007.1 mb 0.00 in0.0 mm 0.00 in0.0 mm 0.00 in0.0 mm
05:17 AM 63.7°F17.6°C 53.1°F11.7°C 68% 5.0 mph SW8.0 kmh SW 6.8 mph10.9 kmh 29.74 in1007.1 mb 0.00 in0.0 mm 0.00 in0.0 mm 0.00 in0.0 mm
05:22 AM 63.7°F17.6°C 53.1°F11.7°C 68% 3.6 mph WSW5.8 kmh WSW 6.2 mph10.0 kmh 29.74 in1007.1 mb 0.00 in0.0 mm 0.00 in0.0 mm 0.00 in0.0 mm
05:27 AM 63.5°F17.5°C 52.9°F11.6°C 68% 4.3 mph S6.9 kmh S 6.2 mph10.0 kmh 29.74 in1007.1 mb 0.00 in0.0 mm 0.00 in0.0 mm 0.00 in0.0 mm
05:32 AM 63.5°F17.5°C 52.9°F11.6°C 68% 3.3 mph S5.3 kmh S 5.8 mph9.3 kmh 29.74 in1007.1 mb 0.00 in0.0 mm 0.00 in0.0 mm 0.00 in0.0 mm
05:38 AM 63.5°F17.5°C 53.3°F11.8°C 69% 4.0 mph W6.4 kmh W 5.8 mph9.3 kmh 29.74 in1007.1 mb 0.00 in0.0 mm 0.00 in0.0 mm 0.00 in0.0 mm
05:43 AM 63.5°F17.5°C 53.3°F11.8°C 69% 4.8 mph WSW7.7 kmh WSW 6.8 mph10.9 kmh 29.74 in1007.1 mb 0.00 in0.0 mm 0.00 in0.0 mm 0.00 in0.0 mm
05:48 AM 63.3°F17.4°C 53.1°F11.7°C 69% 3.7 mph SW6.0 kmh SW 6.8 mph10.9 kmh 29.74 in1007.1 mb 0.00 in0.0 mm 0.00 in0.0 mm 0.00 in0.0 mm
05:53 AM 63.3°F17.4°C 53.1°F11.7°C 69% 2.6 mph SSW4.2 kmh SSW 6.2 mph10.0 kmh 29.74 in1007.1 mb 0.00 in0.0 mm 0.00 in0.0 mm 0.00 in0.0 mm
05:59 AM 63.3°F17.4°C 53.1°F11.7°C 69% 3.2 mph SSW5.1 kmh SSW 5.4 mph8.7 kmh 29.74 in1007.1 mb 0.00 in0.0 mm 0.00 in0.0 mm 0.00 in0.0 mm
06:04 AM 63.1°F17.3°C 52.9°F11.6°C 69% 3.3 mph S5.3 kmh S 5.4 mph8.7 kmh 29.74 in1007.1 mb 0.00 in0.0 mm 0.00 in0.0 mm 0.00 in0.0 mm
06:09 AM 63.1°F17.3°C 53.3°F11.8°C 70% 3.6 mph W5.8 kmh W 6.2 mph10.0 kmh 29.74 in1007.1 mb 0.00 in0.0 mm 0.00 in0.0 mm 0.00 in0.0 mm
06:14 AM 63.1°F17.3°C 53.3°F11.8°C 70% 3.3 mph W5.3 kmh W 6.2 mph10.0 kmh 29.74 in1007.1 mb 0.00 in0.0 mm 0.00 in0.0 mm 0.00 in0.0 mm
06:19 AM 63.7°F17.6°C 53.9°F12.2°C 70% 3.6 mph WNW5.8 kmh WNW 5.8 mph9.3 kmh 29.74 in1007.1 mb 0.00 in0.0 mm 0.00 in0.0 mm 0.00 in0.0 mm
06:24 AM 63.8°F17.7°C 53.9°F12.2°C 70% 5.1 mph W8.2 kmh W 6.2 mph10.0 kmh 29.77 in1008.1 mb 0.00 in0.0 mm 0.00 in0.0 mm 0.00 in0.0 mm
06:29 AM 64.0°F17.8°C 54.1°F12.3°C 70% 5.6 mph WSW9.0 kmh WSW 7.6 mph12.2 kmh 29.77 in1008.1 mb 0.00 in0.0 mm 0.00 in0.0 mm 0.00 in0.0 mm
06:34 AM 64.2°F17.9°C 54.3°F12.4°C 70% 4.8 mph W7.7 kmh W 7.6 mph12.2 kmh 29.77 in1008.1 mb 0.00 in0.0 mm 0.00 in0.0 mm 0.00 in0.0 mm
06:39 AM 64.6°F18.1°C 54.7°F12.6°C 70% 4.4 mph NW7.1 kmh NW 7.6 mph12.2 kmh 29.77 in1008.1 mb 0.00 in0.0 mm 0.00 in0.0 mm 0.00 in0.0 mm
06:44 AM 64.9°F18.3°C 54.6°F12.6°C 69% 3.8 mph NW6.1 kmh NW 7.6 mph12.2 kmh 29.77 in1008.1 mb 0.00 in0.0 mm 0.00 in0.0 mm 0.00 in0.0 mm
06:49 AM 65.1°F18.4°C 54.8°F12.7°C 69% 3.9 mph WNW6.3 kmh WNW 5.4 mph8.7 kmh 29.77 in1008.1 mb 0.00 in0.0 mm 0.00 in0.0 mm 0.00 in0.0 mm
06:54 AM 65.1°F18.4°C 54.8°F12.7°C 69% 2.9 mph WNW4.7 kmh WNW 5.4 mph8.7 kmh 29.80 in1009.1 mb 0.00 in0.0 mm 0.00 in0.0 mm 0.00 in0.0 mm
07:00 AM 65.3°F18.5°C 55.0°F12.8°C 69% 3.3 mph WNW5.3 kmh WNW 5.0 mph8.0 kmh 29.80 in1009.1 mb 0.00 in0.0 mm 0.00 in0.0 mm 0.00 in0.0 mm
07:05 AM 65.6°F18.7°C 55.3°F12.9°C 69% 5.2 mph WSW8.4 kmh WSW 7.6 mph12.2 kmh 29.80 in1009.1 mb 0.00 in0.0 mm 0.00 in0.0 mm 0.00 in0.0 mm
07:10 AM 65.6°F18.7°C 55.3°F12.9°C 69% 5.6 mph W9.0 kmh W 7.6 mph12.2 kmh 29.80 in1009.1 mb 0.00 in0.0 mm 0.00 in0.0 mm 0.00 in0.0 mm
07:15 AM 66.2°F19.0°C 55.5°F13.1°C 68% 6.3 mph WNW10.1 kmh WNW 10.8 mph17.4 kmh 29.80 in1009.1 mb 0.00 in0.0 mm 0.00 in0.0 mm 0.00 in0.0 mm
07:20 AM 66.5°F19.2°C 55.7°F13.2°C 68% 5.4 mph NW8.7 kmh NW 10.8 mph17.4 kmh 29.80 in1009.1 mb 0.00 in0.0 mm 0.00 in0.0 mm 0.00 in0.0 mm
07:25 AM 66.9°F19.4°C 56.1°F13.4°C 68% 5.8 mph W9.3 kmh W 8.6 mph13.8 kmh 29.80 in1009.1 mb 0.00 in0.0 mm 0.00 in0.0 mm 0.00 in0.0 mm
07:30 AM 67.1°F19.5°C 55.9°F13.3°C 67% 5.2 mph NW8.4 kmh NW 8.0 mph12.9 kmh 29.80 in1009.1 mb 0.00 in0.0 mm 0.00 in0.0 mm 0.00 in0.0 mm
07:35 AM 67.3°F19.6°C 56.1°F13.4°C 67% 4.7 mph W7.6 kmh W 7.2 mph11.6 kmh 29.77 in1008.1 mb 0.00 in0.0 mm 0.00 in0.0 mm 0.00 in0.0 mm
07:41 AM 67.3°F19.6°C 55.7°F13.2°C 66% 6.3 mph WNW10.1 kmh WNW 8.6 mph13.8 kmh 29.77 in1008.1 mb 0.00 in0.0 mm 0.00 in0.0 mm 0.00 in0.0 mm
07:46 AM 67.1°F19.5°C 55.9°F13.3°C 67% 6.4 mph WNW10.3 kmh WNW 7.6 mph12.2 kmh 29.77 in1008.1 mb 0.00 in0.0 mm 0.00 in0.0 mm 0.00 in0.0 mm
07:51 AM 67.4°F19.7°C 55.8°F13.2°C 66% 5.4 mph W8.7 kmh W 7.6 mph12.2 kmh 29.80 in1009.1 mb 0.00 in0.0 mm 0.00 in0.0 mm 0.00 in0.0 mm
07:56 AM 68.0°F20.0°C 55.9°F13.3°C 65% 6.1 mph WNW9.8 kmh WNW 7.6 mph12.2 kmh 29.80 in1009.1 mb 0.00 in0.0 mm 0.00 in0.0 mm 0.00 in0.0 mm
08:01 AM 68.0°F20.0°C 55.5°F13.1°C 64% 6.8 mph WSW10.9 kmh WSW 9.4 mph15.1 kmh 29.80 in1009.1 mb 0.00 in0.0 mm 0.00 in0.0 mm 0.00 in0.0 mm
08:06 AM 68.2°F20.1°C 55.7°F13.2°C 64% 7.2 mph WSW11.6 kmh WSW 11.6 mph18.7 kmh 29.80 in1009.1 mb 0.00 in0.0 mm 0.00 in0.0 mm 0.00 in0.0 mm
08:11 AM 68.3°F20.2°C 55.8°F13.2°C 64% 5.9 mph WNW9.5 kmh WNW 11.6 mph18.7 kmh 29.80 in1009.1 mb 0.00 in0.0 mm 0.00 in0.0 mm 0.00 in0.0 mm
08:16 AM 69.1°F20.6°C 56.1°F13.4°C 63% 4.7 mph WNW7.6 kmh WNW 7.6 mph12.2 kmh 29.80 in1009.1 mb 0.00 in0.0 mm 0.00 in0.0 mm 0.00 in0.0 mm
08:21 AM 69.6°F20.9°C 56.1°F13.4°C 62% 5.0 mph NW8.0 kmh NW 7.6 mph12.2 kmh 29.80 in1009.1 mb 0.00 in0.0 mm 0.00 in0.0 mm 0.00 in0.0 mm
08:26 AM 70.3°F21.3°C 55.4°F13.0°C 59% 5.7 mph WNW9.2 kmh WNW 8.0 mph12.9 kmh 29.80 in1009.1 mb 0.00 in0.0 mm 0.00 in0.0 mm 0.00 in0.0 mm
08:31 AM 71.2°F21.8°C 53.8°F12.1°C 54% 7.2 mph WSW11.6 kmh WSW 9.8 mph15.8 kmh 29.80 in1009.1 mb 0.00 in0.0 mm 0.00 in0.0 mm 0.00 in0.0 mm
08:36 AM 71.6°F22.0°C 51.4°F10.8°C 49% 7.2 mph W11.6 kmh W 11.6 mph18.7 kmh 29.80 in1009.1 mb 0.00 in0.0 mm 0.00 in0.0 mm 0.00 in0.0 mm
08:41 AM 72.5°F22.5°C 51.7°F10.9°C 48% 8.9 mph NNW14.3 kmh NNW 15.6 mph25.1 kmh 29.80 in1009.1 mb 0.00 in0.0 mm 0.00 in0.0 mm 0.00 in0.0 mm
08:46 AM 72.8°F22.7°C 50.1°F10.1°C 45% 9.8 mph NW15.8 kmh NW 15.6 mph25.1 kmh 29.80 in1009.1 mb 0.00 in0.0 mm 0.00 in0.0 mm 0.00 in0.0 mm
08:51 AM 73.4°F23.0°C 50.1°F10.1°C 44% 6.2 mph WNW10.0 kmh WNW 12.6 mph20.3 kmh 29.83 in1010.2 mb 0.00 in0.0 mm 0.00 in0.0 mm 0.00 in0.0 mm
08:56 AM 73.7°F23.2°C 49.7°F9.8°C 43% 6.7 mph WNW10.8 kmh WNW 11.6 mph18.7 kmh 29.83 in1010.2 mb 0.00 in0.0 mm 0.00 in0.0 mm 0.00 in0.0 mm
09:02 AM 73.7°F23.2°C 49.7°F9.8°C 43% 6.4 mph WNW10.3 kmh WNW 11.6 mph18.7 kmh 29.83 in1010.2 mb 0.00 in0.0 mm 0.00 in0.0 mm 0.00 in0.0 mm
09:07 AM 74.3°F23.5°C 49.6°F9.8°C 42% 6.5 mph NW10.5 kmh NW 17.4 mph28.0 kmh 29.83 in1010.2 mb 0.00 in0.0 mm 0.00 in0.0 mm 0.00 in0.0 mm
09:13 AM 75.0°F23.9°C 49.6°F9.8°C 41% 9.8 mph W15.8 kmh W 17.4 mph28.0 kmh 29.83 in1010.2 mb 0.00 in0.0 mm 0.00 in0.0 mm 0.00 in0.0 mm
09:18 AM 74.1°F23.4°C 48.8°F9.3°C 41% 7.9 mph WNW12.7 kmh WNW 16.2 mph26.1 kmh 29.83 in1010.2 mb 0.00 in0.0 mm 0.00 in0.0 mm 0.00 in0.0 mm
09:24 AM 75.2°F24.0°C 48.4°F9.1°C 39% 10.4 mph NNW16.7 kmh NNW 21.0 mph33.8 kmh 29.83 in1010.2 mb 0.00 in0.0 mm 0.00 in0.0 mm 0.00 in0.0 mm
09:29 AM 74.8°F23.8°C 47.3°F8.5°C 38% 8.8 mph WNW14.2 kmh WNW 21.0 mph33.8 kmh 29.83 in1010.2 mb 0.00 in0.0 mm 0.00 in0.0 mm 0.00 in0.0 mm
09:34 AM 74.6°F23.7°C 46.4°F8.0°C 37% 9.7 mph W15.6 kmh W 13.8 mph22.2 kmh 29.83 in1010.2 mb 0.00 in0.0 mm 0.00 in0.0 mm 0.00 in0.0 mm
09:39 AM 75.0°F23.9°C 47.5°F8.6°C 38% 7.7 mph NW12.4 kmh NW 13.8 mph22.2 kmh 29.85 in1010.8 mb 0.00 in0.0 mm 0.00 in0.0 mm 0.00 in0.0 mm
09:44 AM 76.4°F24.7°C 48.7°F9.3°C 38% 5.0 mph N8.0 kmh N 11.2 mph18.0 kmh 29.85 in1010.8 mb 0.00 in0.0 mm 0.00 in0.0 mm 0.00 in0.0 mm
09:49 AM 75.7°F24.3°C 46.6°F8.1°C 36% 8.5 mph NW13.7 kmh NW 13.4 mph21.6 kmh 29.85 in1010.8 mb 0.00 in0.0 mm 0.00 in0.0 mm 0.00 in0.0 mm
09:54 AM 76.1°F24.5°C 47.7°F8.7°C 37% 7.8 mph WNW12.6 kmh WNW 14.4 mph23.2 kmh 29.83 in1010.2 mb 0.00 in0.0 mm 0.00 in0.0 mm 0.00 in0.0 mm
09:59 AM 75.9°F24.4°C 46.8°F8.2°C 36% 8.2 mph NNW13.2 kmh NNW 15.6 mph25.1 kmh 29.83 in1010.2 mb 0.00 in0.0 mm 0.00 in0.0 mm 0.00 in0.0 mm
10:05 AM 75.0°F23.9°C 46.0°F7.8°C 36% 7.4 mph NNW11.9 kmh NNW 15.6 mph25.1 kmh 29.83 in1010.2 mb 0.00 in0.0 mm 0.00 in0.0 mm 0.00 in0.0 mm
10:10 AM 73.9°F23.3°C 44.3°F6.8°C 35% 8.9 mph WNW14.3 kmh WNW 14.4 mph23.2 kmh 29.85 in1010.8 mb 0.00 in0.0 mm 0.00 in0.0 mm 0.00 in0.0 mm
10:15 AM 74.5°F23.6°C 45.6°F7.6°C 36% 9.5 mph N15.3 kmh N 14.4 mph23.2 kmh 29.85 in1010.8 mb 0.00 in0.0 mm 0.00 in0.0 mm 0.00 in0.0 mm
10:20 AM 74.3°F23.5°C 45.4°F7.4°C 36% 10.6 mph NNW17.1 kmh NNW 27.8 mph44.7 kmh 29.85 in1010.8 mb 0.00 in0.0 mm 0.00 in0.0 mm 0.00 in0.0 mm
10:25 AM 74.1°F23.4°C 44.5°F6.9°C 35% 11.1 mph N17.9 kmh N 27.8 mph44.7 kmh 29.85 in1010.8 mb 0.00 in0.0 mm 0.00 in0.0 mm 0.00 in0.0 mm
10:30 AM 73.9°F23.3°C 44.3°F6.8°C 35% 12.8 mph N20.6 kmh N 25.6 mph41.2 kmh 29.85 in1010.8 mb 0.00 in0.0 mm 0.00 in0.0 mm 0.00 in0.0 mm
10:36 AM 73.0°F22.8°C 43.5°F6.4°C 35% 8.7 mph NW14.0 kmh NW 25.6 mph41.2 kmh 29.88 in1011.9 mb 0.00 in0.0 mm 0.00 in0.0 mm 0.00 in0.0 mm
10:42 AM 73.7°F23.2°C 43.4°F6.3°C 34% 9.3 mph NNW15.0 kmh NNW 22.0 mph35.4 kmh 29.88 in1011.9 mb 0.00 in0.0 mm 0.00 in0.0 mm 0.00 in0.0 mm
10:46 AM 73.2°F22.9°C 42.9°F6.1°C 34% 10.0 mph NW16.1 kmh NW 17.0 mph27.4 kmh 29.88 in1011.9 mb 0.00 in0.0 mm 0.00 in0.0 mm 0.00 in0.0 mm
10:51 AM 73.9°F23.3°C 43.5°F6.4°C 34% 8.1 mph NW13.0 kmh NW 17.0 mph27.4 kmh 29.88 in1011.9 mb 0.00 in0.0 mm 0.00 in0.0 mm 0.00 in0.0 mm
10:57 AM 73.2°F22.9°C 42.9°F6.1°C 34% 7.1 mph NNW11.4 kmh NNW 17.4 mph28.0 kmh 29.88 in1011.9 mb 0.00 in0.0 mm 0.00 in0.0 mm 0.00 in0.0 mm
11:02 AM 71.6°F22.0°C 40.7°F4.8°C 33% 10.0 mph WNW16.1 kmh WNW 17.4 mph28.0 kmh 29.88 in1011.9 mb 0.00 in0.0 mm 0.00 in0.0 mm 0.00 in0.0 mm
11:07 AM 73.0°F22.8°C 42.7°F5.9°C 34% 9.2 mph NNW14.8 kmh NNW 15.6 mph25.1 kmh 29.88 in1011.9 mb 0.00 in0.0 mm 0.00 in0.0 mm 0.00 in0.0 mm
11:12 AM 72.7°F22.6°C 41.7°F5.4°C 33% 10.9 mph NW17.5 kmh NW 17.0 mph27.4 kmh 29.88 in1011.9 mb 0.00 in0.0 mm 0.00 in0.0 mm 0.00 in0.0 mm
11:17 AM 73.4°F23.0°C 42.3°F5.7°C 33% 8.8 mph N14.2 kmh N 17.0 mph27.4 kmh 29.88 in1011.9 mb 0.00 in0.0 mm 0.00 in0.0 mm 0.00 in0.0 mm
11:22 AM 73.4°F23.0°C 42.3°F5.7°C 33% 5.3 mph NW8.5 kmh NW 13.8 mph22.2 kmh 29.88 in1011.9 mb 0.00 in0.0 mm 0.00 in0.0 mm 0.00 in0.0 mm
11:28 AM 75.0°F23.9°C 43.7°F6.5°C 33% 7.8 mph NNW12.6 kmh NNW 13.4 mph21.6 kmh 29.88 in1011.9 mb 0.00 in0.0 mm 0.00 in0.0 mm 0.00 in0.0 mm
11:33 AM 75.5°F24.2°C 44.2°F6.8°C 33% 4.9 mph N7.9 kmh N 17.0 mph27.4 kmh 29.88 in1011.9 mb 0.00 in0.0 mm 0.00 in0.0 mm 0.00 in0.0 mm
11:38 AM 74.3°F23.5°C 42.3°F5.7°C 32% 10.1 mph NW16.3 kmh NW 19.6 mph31.5 kmh 29.91 in1012.9 mb 0.00 in0.0 mm 0.00 in0.0 mm 0.00 in0.0 mm
11:43 AM 72.8°F22.7°C 41.8°F5.4°C 33% 16.2 mph 26.1 kmh 29.0 mph46.7 kmh 29.91 in1012.9 mb 0.00 in0.0 mm 0.00 in0.0 mm 0.00 in0.0 mm
11:48 AM 72.8°F22.7°C 41.8°F5.4°C 33% 6.7 mph N10.8 kmh N 29.0 mph46.7 kmh 29.91 in1012.9 mb 0.00 in0.0 mm 0.00 in0.0 mm 0.00 in0.0 mm
11:53 AM 72.7°F22.6°C 41.7°F5.4°C 33% 13.9 mph N22.4 kmh N 25.6 mph41.2 kmh 29.91 in1012.9 mb 0.00 in0.0 mm 0.00 in0.0 mm 0.00 in0.0 mm
11:59 AM 71.6°F22.0°C 40.7°F4.8°C 33% 8.2 mph NW13.2 kmh NW 43.8 mph70.5 kmh 29.91 in1012.9 mb 0.00 in0.0 mm 0.00 in0.0 mm 0.00 in0.0 mm
12:04 PM 70.7°F21.5°C 40.7°F4.8°C 34% 7.3 mph NW11.7 kmh NW 43.8 mph70.5 kmh 29.91 in1012.9 mb 0.00 in0.0 mm 0.00 in0.0 mm 0.00 in0.0 mm
12:09 PM 71.2°F21.8°C 40.4°F4.7°C 33% 9.1 mph NW14.6 kmh NW 15.2 mph24.5 kmh 29.88 in1011.9 mb 0.00 in0.0 mm 0.00 in0.0 mm 0.00 in0.0 mm
12:14 PM 71.4°F21.9°C 40.6°F4.8°C 33% 9.9 mph N15.9 kmh N 25.0 mph40.2 kmh 29.88 in1011.9 mb 0.00 in0.0 mm 0.00 in0.0 mm 0.00 in0.0 mm
12:19 PM 69.2°F20.7°C 39.4°F4.1°C 34% 9.7 mph WNW15.6 kmh WNW 25.0 mph40.2 kmh 29.88 in1011.9 mb 0.00 in0.0 mm 0.00 in0.0 mm 0.00 in0.0 mm
12:24 PM 70.9°F21.6°C 40.9°F4.9°C 34% 7.7 mph NW12.4 kmh NW 17.4 mph28.0 kmh 29.91 in1012.9 mb 0.00 in0.0 mm 0.00 in0.0 mm 0.00 in0.0 mm
12:30 PM 71.4°F21.9°C 40.6°F4.8°C 33% 10.0 mph 16.1 kmh 17.4 mph28.0 kmh 29.91 in1012.9 mb 0.00 in0.0 mm 0.00 in0.0 mm 0.00 in0.0 mm
12:35 PM 71.4°F21.9°C 39.8°F4.3°C 32% 13.3 mph N21.4 kmh N 22.8 mph36.7 kmh 29.91 in1012.9 mb 0.00 in0.0 mm 0.00 in0.0 mm 0.00 in0.0 mm
12:40 PM 72.3°F22.4°C 41.4°F5.2°C 33% 8.8 mph N14.2 kmh N 22.8 mph36.7 kmh 29.91 in1012.9 mb 0.00 in0.0 mm 0.00 in0.0 mm 0.00 in0.0 mm
12:46 PM 71.6°F22.0°C 40.7°F4.8°C 33% 9.2 mph N14.8 kmh N 17.8 mph28.6 kmh 29.91 in1012.9 mb 0.00 in0.0 mm 0.00 in0.0 mm 0.00 in0.0 mm
12:51 PM 70.5°F21.4°C 39.8°F4.3°C 33% 18.9 mph N30.4 kmh N 33.2 mph53.4 kmh 29.94 in1013.9 mb 0.00 in0.0 mm 0.00 in0.0 mm 0.00 in0.0 mm
12:56 PM 70.3°F21.3°C 39.6°F4.2°C 33% 11.8 mph NNW19.0 kmh NNW 33.2 mph53.4 kmh 29.94 in1013.9 mb 0.00 in0.0 mm 0.00 in0.0 mm 0.00 in0.0 mm
01:01 PM 71.9°F22.2°C 41.0°F5.0°C 33% 7.5 mph NW12.1 kmh NW 26.8 mph43.1 kmh 29.94 in1013.9 mb 0.00 in0.0 mm 0.00 in0.0 mm 0.00 in0.0 mm
01:06 PM 71.2°F21.8°C 40.4°F4.7°C 33% 10.9 mph NNW17.5 kmh NNW 19.6 mph31.5 kmh 29.97 in1014.9 mb 0.00 in0.0 mm 0.00 in0.0 mm 0.00 in0.0 mm
01:12 PM 70.1°F21.2°C 38.6°F3.7°C 32% 13.0 mph N20.9 kmh N 26.0 mph41.8 kmh 29.97 in1014.9 mb 0.00 in0.0 mm 0.00 in0.0 mm 0.00 in0.0 mm
01:17 PM 70.5°F21.4°C 39.8°F4.3°C 33% 17.4 mph N28.0 kmh N 33.6 mph54.1 kmh 29.97 in1014.9 mb 0.00 in0.0 mm 0.00 in0.0 mm 0.00 in0.0 mm
01:23 PM 69.4°F20.8°C 38.8°F3.8°C 33% 8.2 mph NW13.2 kmh NW 35.4 mph57.0 kmh 30.00 in1015.9 mb 0.00 in0.0 mm 0.00 in0.0 mm 0.00 in0.0 mm
01:28 PM 70.9°F21.6°C 40.1°F4.5°C 33% 8.8 mph NNW14.2 kmh NNW 30.4 mph48.9 kmh 30.00 in1015.9 mb 0.00 in0.0 mm 0.00 in0.0 mm 0.00 in0.0 mm
01:34 PM 69.8°F21.0°C 38.4°F3.6°C 32% 19.4 mph N31.2 kmh N 24.6 mph39.6 kmh 30.00 in1015.9 mb 0.00 in0.0 mm 0.00 in0.0 mm 0.00 in0.0 mm
01:39 PM 70.1°F21.2°C 39.4°F4.1°C 33% 12.2 mph N19.6 kmh N 39.4 mph63.4 kmh 29.97 in1014.9 mb 0.00 in0.0 mm 0.00 in0.0 mm 0.00 in0.0 mm
01:46 PM 69.2°F20.7°C 38.6°F3.7°C 33% 9.7 mph NW15.6 kmh NW 29.0 mph46.7 kmh 29.97 in1014.9 mb 0.00 in0.0 mm 0.00 in0.0 mm 0.00 in0.0 mm
01:51 PM 69.2°F20.7°C 37.8°F3.2°C 32% 8.5 mph NNW13.7 kmh NNW 25.6 mph41.2 kmh 29.97 in1014.9 mb 0.00 in0.0 mm 0.00 in0.0 mm 0.00 in0.0 mm
01:56 PM 70.0°F21.1°C 39.3°F4.1°C 33% 6.7 mph NW10.8 kmh NW 20.6 mph33.2 kmh 29.97 in1014.9 mb 0.00 in0.0 mm 0.00 in0.0 mm 0.00 in0.0 mm
02:01 PM 71.4°F21.9°C 39.8°F4.3°C 32% 8.9 mph N14.3 kmh N 19.6 mph31.5 kmh 29.97 in1014.9 mb 0.00 in0.0 mm 0.00 in0.0 mm 0.00 in0.0 mm
02:06 PM 71.4°F21.9°C 39.8°F4.3°C 32% 6.6 mph NNW10.6 kmh NNW 19.6 mph31.5 kmh 29.97 in1014.9 mb 0.00 in0.0 mm 0.00 in0.0 mm 0.00 in0.0 mm
02:11 PM 68.7°F20.4°C 37.4°F3.0°C 32% 9.0 mph WNW14.5 kmh WNW 17.4 mph28.0 kmh 29.97 in1014.9 mb 0.00 in0.0 mm 0.00 in0.0 mm 0.00 in0.0 mm
02:17 PM 70.0°F21.1°C 39.3°F4.1°C 33% 9.9 mph N15.9 kmh N 14.8 mph23.8 kmh 29.97 in1014.9 mb 0.00 in0.0 mm 0.00 in0.0 mm 0.00 in0.0 mm
02:22 PM 69.2°F20.7°C 38.6°F3.7°C 33% 12.0 mph N19.3 kmh N 26.0 mph41.8 kmh 29.97 in1014.9 mb 0.00 in0.0 mm 0.00 in0.0 mm 0.00 in0.0 mm
02:27 PM 69.6°F20.9°C 38.2°F3.4°C 32% 8.3 mph N13.4 kmh N 26.0 mph41.8 kmh 29.97 in1014.9 mb 0.00 in0.0 mm 0.00 in0.0 mm 0.00 in0.0 mm
02:32 PM 69.6°F20.9°C 39.0°F3.9°C 33% 7.3 mph N11.7 kmh N 20.6 mph33.2 kmh 29.97 in1014.9 mb 0.00 in0.0 mm 0.00 in0.0 mm 0.00 in0.0 mm
02:37 PM 67.1°F19.5°C 36.8°F2.7°C 33% 27.8 mph NNE44.7 kmh NNE 48.4 mph77.9 kmh 29.97 in1014.9 mb 0.00 in0.0 mm 0.00 in0.0 mm 0.00 in0.0 mm
02:42 PM 67.1°F19.5°C 36.8°F2.7°C 33% 12.0 mph 19.3 kmh 48.4 mph77.9 kmh 29.97 in1014.9 mb 0.00 in0.0 mm 0.00 in0.0 mm 0.00 in0.0 mm
02:47 PM 66.0°F18.9°C 35.8°F2.1°C 33% 21.4 mph N34.4 kmh N 38.0 mph61.2 kmh 29.97 in1014.9 mb 0.00 in0.0 mm 0.00 in0.0 mm 0.00 in0.0 mm
02:52 PM 67.4°F19.7°C 37.8°F3.2°C 34% 7.7 mph NNW12.4 kmh NNW 38.0 mph61.2 kmh 30.00 in1015.9 mb 0.00 in0.0 mm 0.00 in0.0 mm 0.00 in0.0 mm
02:57 PM 66.0°F18.9°C 36.6°F2.6°C 34% 20.0 mph NE32.2 kmh NE 34.0 mph54.7 kmh 30.00 in1015.9 mb 0.00 in0.0 mm 0.00 in0.0 mm 0.00 in0.0 mm
03:02 PM 65.6°F18.7°C 36.2°F2.3°C 34% 10.7 mph N17.2 kmh N 42.0 mph67.6 kmh 30.00 in1015.9 mb 0.00 in0.0 mm 0.00 in0.0 mm 0.00 in0.0 mm
03:07 PM 66.0°F18.9°C 36.6°F2.6°C 34% 16.0 mph N25.7 kmh N 42.0 mph67.6 kmh 30.00 in1015.9 mb 0.00 in0.0 mm 0.00 in0.0 mm 0.00 in0.0 mm
03:12 PM 66.0°F18.9°C 36.6°F2.6°C 34% 12.3 mph N19.8 kmh N 35.8 mph57.6 kmh 30.00 in1015.9 mb 0.00 in0.0 mm 0.00 in0.0 mm 0.00 in0.0 mm
03:17 PM 64.2°F17.9°C 35.0°F1.7°C 34% 28.9 mph N46.5 kmh N 46.6 mph75.0 kmh 30.00 in1015.9 mb 0.00 in0.0 mm 0.00 in0.0 mm 0.00 in0.0 mm
03:22 PM 64.2°F17.9°C 35.0°F1.7°C 34% 12.0 mph N19.3 kmh N 46.6 mph75.0 kmh 30.00 in1015.9 mb 0.00 in0.0 mm 0.00 in0.0 mm 0.00 in0.0 mm
03:28 PM 63.5°F17.5°C 34.4°F1.3°C 34% 18.9 mph N30.4 kmh N 30.8 mph49.6 kmh 30.00 in1015.9 mb 0.00 in0.0 mm 0.00 in0.0 mm 0.00 in0.0 mm
03:33 PM 64.4°F18.0°C 35.2°F1.8°C 34% 9.4 mph N15.1 kmh N 30.4 mph48.9 kmh 30.00 in1015.9 mb 0.00 in0.0 mm 0.00 in0.0 mm 0.00 in0.0 mm
03:38 PM 65.1°F18.4°C 35.8°F2.1°C 34% 9.4 mph NNW15.1 kmh NNW 26.4 mph42.5 kmh 30.00 in1015.9 mb 0.00 in0.0 mm 0.00 in0.0 mm 0.00 in0.0 mm
03:43 PM 64.6°F18.1°C 35.4°F1.9°C 34% 15.2 mph N24.5 kmh N 24.2 mph38.9 kmh 30.00 in1015.9 mb 0.00 in0.0 mm 0.00 in0.0 mm 0.00 in0.0 mm
03:48 PM 62.9°F17.2°C 33.9°F1.1°C 34% 21.3 mph NNE34.3 kmh NNE 34.0 mph54.7 kmh 30.00 in1015.9 mb 0.00 in0.0 mm 0.00 in0.0 mm 0.00 in0.0 mm
03:53 PM 62.4°F16.9°C 33.4°F0.8°C 34% 15.7 mph N25.3 kmh N 34.0 mph54.7 kmh 30.03 in1016.9 mb 0.00 in0.0 mm 0.00 in0.0 mm 0.00 in0.0 mm
03:58 PM 61.9°F16.6°C 33.0°F0.6°C 34% 11.8 mph N19.0 kmh N 29.6 mph47.6 kmh 30.03 in1016.9 mb 0.00 in0.0 mm 0.00 in0.0 mm 0.00 in0.0 mm
04:03 PM 62.0°F16.7°C 33.1°F0.6°C 34% 6.4 mph NNW10.3 kmh NNW 26.4 mph42.5 kmh 30.03 in1016.9 mb 0.00 in0.0 mm 0.00 in0.0 mm 0.00 in0.0 mm
04:08 PM 61.1°F16.2°C 32.3°F0.2°C 34% 26.2 mph NNE42.2 kmh NNE 47.0 mph75.6 kmh 30.03 in1016.9 mb 0.00 in0.0 mm 0.00 in0.0 mm 0.00 in0.0 mm
04:13 PM 60.2°F15.7°C 32.2°F0.1°C 35% 16.0 mph N25.7 kmh N 47.0 mph75.6 kmh 30.03 in1016.9 mb 0.00 in0.0 mm 0.00 in0.0 mm 0.00 in0.0 mm
04:18 PM 59.9°F15.5°C 31.9°F-0.1°C 35% 17.8 mph N28.6 kmh N 31.8 mph51.2 kmh 30.03 in1016.9 mb 0.00 in0.0 mm 0.00 in0.0 mm 0.00 in0.0 mm
04:23 PM 59.1°F15.1°C 31.1°F-0.5°C 35% 24.4 mph N39.3 kmh N 42.6 mph68.6 kmh 30.03 in1016.9 mb 0.00 in0.0 mm 0.00 in0.0 mm 0.00 in0.0 mm
04:29 PM 59.3°F15.2°C 31.3°F-0.4°C 35% 12.7 mph N20.4 kmh N 44.8 mph72.1 kmh 30.03 in1016.9 mb 0.00 in0.0 mm 0.00 in0.0 mm 0.00 in0.0 mm
04:34 PM 58.7°F14.8°C 31.5°F-0.3°C 36% 18.2 mph N29.3 kmh N 34.8 mph56.0 kmh 30.03 in1016.9 mb 0.00 in0.0 mm 0.00 in0.0 mm 0.00 in0.0 mm
04:39 PM 58.2°F14.6°C 31.1°F-0.5°C 36% 26.0 mph NNE41.8 kmh NNE 39.4 mph63.4 kmh 30.03 in1016.9 mb 0.00 in0.0 mm 0.00 in0.0 mm 0.00 in0.0 mm
04:44 PM 58.0°F14.4°C 30.9°F-0.6°C 36% 20.1 mph N32.3 kmh N 39.4 mph63.4 kmh 30.03 in1016.9 mb 0.00 in0.0 mm 0.00 in0.0 mm 0.00 in0.0 mm
04:49 PM 58.4°F14.7°C 31.2°F-0.4°C 36% 10.1 mph N16.3 kmh N 36.2 mph58.3 kmh 30.03 in1016.9 mb 0.00 in0.0 mm 0.00 in0.0 mm 0.00 in0.0 mm
04:54 PM 57.8°F14.3°C 30.7°F-0.7°C 36% 14.2 mph N22.9 kmh N 39.4 mph63.4 kmh 30.06 in1017.9 mb 0.00 in0.0 mm 0.00 in0.0 mm 0.00 in0.0 mm
04:59 PM 57.5°F14.2°C 30.4°F-0.9°C 36% 18.2 mph N29.3 kmh N 39.4 mph63.4 kmh 30.06 in1017.9 mb 0.00 in0.0 mm 0.00 in0.0 mm 0.00 in0.0 mm
05:04 PM 57.8°F14.3°C 30.7°F-0.7°C 36% 8.0 mph NNW12.9 kmh NNW 30.4 mph48.9 kmh 30.06 in1017.9 mb 0.00 in0.0 mm 0.00 in0.0 mm 0.00 in0.0 mm
05:09 PM 57.3°F14.1°C 30.3°F-0.9°C 36% 20.0 mph N32.2 kmh N 27.2 mph43.8 kmh 30.06 in1017.9 mb 0.00 in0.0 mm 0.00 in0.0 mm 0.00 in0.0 mm
05:14 PM 56.9°F13.8°C 29.9°F-1.2°C 36% 15.4 mph NNE24.8 kmh NNE 31.8 mph51.2 kmh 30.06 in1017.9 mb 0.00 in0.0 mm 0.00 in0.0 mm 0.00 in0.0 mm
05:20 PM 57.6°F14.2°C 30.5°F-0.8°C 36% 8.0 mph NNW12.9 kmh NNW 31.8 mph51.2 kmh 30.06 in1017.9 mb 0.00 in0.0 mm 0.00 in0.0 mm 0.00 in0.0 mm
05:25 PM 58.0°F14.4°C 30.9°F-0.6°C 36% 8.0 mph N12.9 kmh N 21.0 mph33.8 kmh 30.06 in1017.9 mb 0.00 in0.0 mm 0.00 in0.0 mm 0.00 in0.0 mm
05:30 PM 56.9°F13.8°C 29.9°F-1.2°C 36% 16.6 mph N26.7 kmh N 29.6 mph47.6 kmh 30.06 in1017.9 mb 0.00 in0.0 mm 0.00 in0.0 mm 0.00 in0.0 mm
05:35 PM 56.6°F13.7°C 29.6°F-1.3°C 36% 12.5 mph NNE20.1 kmh NNE 29.6 mph47.6 kmh 30.09 in1019.0 mb 0.00 in0.0 mm 0.00 in0.0 mm 0.00 in0.0 mm
05:40 PM 56.4°F13.6°C 29.5°F-1.4°C 36% 16.7 mph N26.9 kmh N 29.0 mph46.7 kmh 30.09 in1019.0 mb 0.00 in0.0 mm 0.00 in0.0 mm 0.00 in0.0 mm
05:45 PM 56.2°F13.4°C 29.3°F-1.5°C 36% 19.8 mph NNE31.9 kmh NNE 29.0 mph46.7 kmh 30.09 in1019.0 mb 0.00 in0.0 mm 0.00 in0.0 mm 0.00 in0.0 mm
05:51 PM 56.0°F13.3°C 29.1°F-1.6°C 36% 14.2 mph N22.9 kmh N 35.8 mph57.6 kmh 30.12 in1020.0 mb 0.00 in0.0 mm 0.00 in0.0 mm 0.00 in0.0 mm
05:56 PM 55.8°F13.2°C 28.9°F-1.7°C 36% 12.7 mph NNE20.4 kmh NNE 35.8 mph57.6 kmh 30.12 in1020.0 mb 0.00 in0.0 mm 0.00 in0.0 mm 0.00 in0.0 mm
06:01 PM 55.7°F13.2°C 28.8°F-1.8°C 36% 9.9 mph N15.9 kmh N 35.8 mph57.6 kmh 30.12 in1020.0 mb 0.00 in0.0 mm 0.00 in0.0 mm 0.00 in0.0 mm
06:06 PM 55.7°F13.2°C 28.8°F-1.8°C 36% 13.8 mph N22.2 kmh N 24.6 mph39.6 kmh 30.06 in1017.9 mb 0.00 in0.0 mm 0.00 in0.0 mm 0.00 in0.0 mm
06:11 PM 55.3°F12.9°C 28.5°F-1.9°C 36% 13.2 mph N21.2 kmh N 30.4 mph48.9 kmh 30.06 in1017.9 mb 0.00 in0.0 mm 0.00 in0.0 mm 0.00 in0.0 mm
06:16 PM 55.3°F12.9°C 28.5°F-1.9°C 36% 7.7 mph N12.4 kmh N 30.4 mph48.9 kmh 30.06 in1017.9 mb 0.00 in0.0 mm 0.00 in0.0 mm 0.00 in0.0 mm
06:21 PM 55.1°F12.8°C 29.0°F-1.7°C 37% 10.2 mph N16.4 kmh N 29.0 mph46.7 kmh 30.06 in1017.9 mb 0.00 in0.0 mm 0.00 in0.0 mm 0.00 in0.0 mm
06:26 PM 54.8°F12.7°C 28.7°F-1.8°C 37% 9.2 mph N14.8 kmh N 20.6 mph33.2 kmh 30.06 in1017.9 mb 0.00 in0.0 mm 0.00 in0.0 mm 0.00 in0.0 mm
06:31 PM 54.4°F12.4°C 28.4°F-2.0°C 37% 14.0 mph NNE22.5 kmh NNE 21.4 mph34.4 kmh 30.06 in1017.9 mb 0.00 in0.0 mm 0.00 in0.0 mm 0.00 in0.0 mm
06:36 PM 54.0°F12.2°C 28.0°F-2.2°C 37% 11.2 mph N18.0 kmh N 22.0 mph35.4 kmh 30.09 in1019.0 mb 0.00 in0.0 mm 0.00 in0.0 mm 0.00 in0.0 mm
06:42 PM 53.7°F12.1°C 28.4°F-2.0°C 38% 8.1 mph NNE13.0 kmh NNE 22.0 mph35.4 kmh 30.09 in1019.0 mb 0.00 in0.0 mm 0.00 in0.0 mm 0.00 in0.0 mm
06:47 PM 53.3°F11.8°C 28.0°F-2.2°C 38% 6.9 mph NE11.1 kmh NE 15.6 mph25.1 kmh 30.09 in1019.0 mb 0.00 in0.0 mm 0.00 in0.0 mm 0.00 in0.0 mm
06:52 PM 53.0°F11.7°C 27.8°F-2.3°C 38% 6.2 mph N10.0 kmh N 12.6 mph20.3 kmh 30.12 in1020.0 mb 0.00 in0.0 mm 0.00 in0.0 mm 0.00 in0.0 mm
06:57 PM 52.6°F11.4°C 28.1°F-2.2°C 39% 12.7 mph NNE20.4 kmh NNE 20.6 mph33.2 kmh 30.12 in1020.0 mb 0.00 in0.0 mm 0.00 in0.0 mm 0.00 in0.0 mm
07:03 PM 52.6°F11.4°C 28.1°F-2.2°C 39% 10.5 mph NNE16.9 kmh NNE 20.6 mph33.2 kmh 30.12 in1020.0 mb 0.00 in0.0 mm 0.00 in0.0 mm 0.00 in0.0 mm
07:08 PM 52.1°F11.2°C 27.6°F-2.4°C 39% 8.8 mph N14.2 kmh N 20.6 mph33.2 kmh 30.12 in1020.0 mb 0.00 in0.0 mm 0.00 in0.0 mm 0.00 in0.0 mm
07:14 PM 51.7°F10.9°C 27.2°F-2.7°C 39% 8.9 mph NNE14.3 kmh NNE 15.6 mph25.1 kmh 30.12 in1020.0 mb 0.00 in0.0 mm 0.00 in0.0 mm 0.00 in0.0 mm
07:19 PM 51.3°F10.7°C 27.5°F-2.5°C 40% 11.1 mph NNE17.9 kmh NNE 22.0 mph35.4 kmh 30.12 in1020.0 mb 0.00 in0.0 mm 0.00 in0.0 mm 0.00 in0.0 mm
07:24 PM 51.0°F10.6°C 27.2°F-2.7°C 40% 14.5 mph NE23.3 kmh NE 22.0 mph35.4 kmh 30.12 in1020.0 mb 0.00 in0.0 mm 0.00 in0.0 mm 0.00 in0.0 mm
07:29 PM 50.6°F10.3°C 26.9°F-2.8°C 40% 12.1 mph NNE19.5 kmh NNE 17.8 mph28.6 kmh 30.12 in1020.0 mb 0.00 in0.0 mm 0.00 in0.0 mm 0.00 in0.0 mm
07:34 PM 50.3°F10.2°C 26.6°F-3.0°C 40% 9.9 mph NNE15.9 kmh NNE 15.6 mph25.1 kmh 30.12 in1020.0 mb 0.00 in0.0 mm 0.00 in0.0 mm 0.00 in0.0 mm
07:39 PM 50.1°F10.1°C 26.4°F-3.1°C 40% 13.2 mph N21.2 kmh N 20.2 mph32.5 kmh 30.15 in1021.0 mb 0.00 in0.0 mm 0.00 in0.0 mm 0.00 in0.0 mm
07:44 PM 49.9°F9.9°C 26.3°F-3.2°C 40% 8.1 mph N13.0 kmh N 20.2 mph32.5 kmh 30.15 in1021.0 mb 0.00 in0.0 mm 0.00 in0.0 mm 0.00 in0.0 mm
07:49 PM 49.5°F9.7°C 26.5°F-3.1°C 41% 11.0 mph NNE17.7 kmh NNE 17.4 mph28.0 kmh 30.15 in1021.0 mb 0.00 in0.0 mm 0.00 in0.0 mm 0.00 in0.0 mm
08:00 PM 48.8°F9.3°C 25.9°F-3.4°C 41% 7.0 mph NE11.3 kmh NE 12.0 mph19.3 kmh 30.15 in1021.0 mb 0.00 in0.0 mm 0.00 in0.0 mm 0.00 in0.0 mm
08:05 PM 48.6°F9.2°C 26.3°F-3.2°C 42% 9.0 mph NE14.5 kmh NE 12.6 mph20.3 kmh 30.15 in1021.0 mb 0.00 in0.0 mm 0.00 in0.0 mm 0.00 in0.0 mm
08:11 PM 48.5°F9.2°C 26.2°F-3.2°C 42% 7.1 mph NE11.4 kmh NE 18.4 mph29.6 kmh 30.15 in1021.0 mb 0.00 in0.0 mm 0.00 in0.0 mm 0.00 in0.0 mm
08:17 PM 48.3°F9.1°C 26.0°F-3.3°C 42% 3.6 mph N5.8 kmh N 15.6 mph25.1 kmh 30.15 in1021.0 mb 0.00 in0.0 mm 0.00 in0.0 mm 0.00 in0.0 mm
08:21 PM 47.9°F8.8°C 26.2°F-3.2°C 43% 5.4 mph NNE8.7 kmh NNE 15.6 mph25.1 kmh 30.15 in1021.0 mb 0.00 in0.0 mm 0.00 in0.0 mm 0.00 in0.0 mm
08:27 PM 47.7°F8.7°C 26.1°F-3.3°C 43% 4.1 mph N6.6 kmh N 9.4 mph15.1 kmh 30.15 in1021.0 mb 0.00 in0.0 mm 0.00 in0.0 mm 0.00 in0.0 mm
08:33 PM 47.4°F8.6°C 25.8°F-3.4°C 43% 3.5 mph NE5.6 kmh NE 8.0 mph12.9 kmh 30.15 in1021.0 mb 0.00 in0.0 mm 0.00 in0.0 mm 0.00 in0.0 mm
08:38 PM 47.2°F8.4°C 26.7°F-2.9°C 45% 7.4 mph N11.9 kmh N 12.0 mph19.3 kmh 30.18 in1022.0 mb 0.00 in0.0 mm 0.00 in0.0 mm 0.00 in0.0 mm
08:43 PM 47.0°F8.3°C 26.6°F-3.0°C 45% 4.2 mph N6.8 kmh N 20.2 mph32.5 kmh 30.18 in1022.0 mb 0.00 in0.0 mm 0.00 in0.0 mm 0.00 in0.0 mm
08:48 PM 47.0°F8.3°C 26.6°F-3.0°C 45% 5.3 mph NE8.5 kmh NE 20.2 mph32.5 kmh 30.18 in1022.0 mb 0.00 in0.0 mm 0.00 in0.0 mm 0.00 in0.0 mm
08:54 PM 46.8°F8.2°C 26.4°F-3.1°C 45% 4.4 mph ENE7.1 kmh ENE 13.0 mph20.9 kmh 30.18 in1022.0 mb 0.00 in0.0 mm 0.00 in0.0 mm 0.00 in0.0 mm
08:59 PM 46.7°F8.2°C 26.8°F-2.9°C 46% 11.7 mph NNE18.8 kmh NNE 20.6 mph33.2 kmh 30.18 in1022.0 mb 0.00 in0.0 mm 0.00 in0.0 mm 0.00 in0.0 mm
09:05 PM 46.5°F8.1°C 26.6°F-3.0°C 46% 7.5 mph NNE12.1 kmh NNE 20.6 mph33.2 kmh 30.18 in1022.0 mb 0.00 in0.0 mm 0.00 in0.0 mm 0.00 in0.0 mm
09:10 PM 46.3°F7.9°C 26.5°F-3.1°C 46% 10.1 mph NE16.3 kmh NE 14.8 mph23.8 kmh 30.18 in1022.0 mb 0.00 in0.0 mm 0.00 in0.0 mm 0.00 in0.0 mm
09:15 PM 46.1°F7.8°C 26.8°F-2.9°C 47% 4.1 mph NE6.6 kmh NE 14.8 mph23.8 kmh 30.18 in1022.0 mb 0.00 in0.0 mm 0.00 in0.0 mm 0.00 in0.0 mm
09:20 PM 45.8°F7.7°C 26.5°F-3.1°C 47% 8.0 mph NE12.9 kmh NE 10.8 mph17.4 kmh 30.21 in1023.0 mb 0.00 in0.0 mm 0.00 in0.0 mm 0.00 in0.0 mm
09:27 PM 45.6°F7.6°C 26.4°F-3.1°C 47% 4.7 mph N7.6 kmh N 12.6 mph20.3 kmh 30.21 in1023.0 mb 0.00 in0.0 mm 0.00 in0.0 mm 0.00 in0.0 mm
09:32 PM 45.4°F7.4°C 26.7°F-2.9°C 48% 8.4 mph N13.5 kmh N 19.6 mph31.5 kmh 30.21 in1023.0 mb 0.00 in0.0 mm 0.00 in0.0 mm 0.00 in0.0 mm
09:37 PM 45.2°F7.3°C 26.5°F-3.1°C 48% 4.0 mph NNE6.4 kmh NNE 19.6 mph31.5 kmh 30.21 in1023.0 mb 0.00 in0.0 mm 0.00 in0.0 mm 0.00 in0.0 mm
09:42 PM 45.0°F7.2°C 26.3°F-3.2°C 48% 5.7 mph NNE9.2 kmh NNE 19.6 mph31.5 kmh 30.21 in1023.0 mb 0.00 in0.0 mm 0.00 in0.0 mm 0.00 in0.0 mm
09:48 PM 44.9°F7.2°C 26.2°F-3.2°C 48% 5.5 mph NE8.9 kmh NE 12.0 mph19.3 kmh 30.21 in1023.0 mb 0.00 in0.0 mm 0.00 in0.0 mm 0.00 in0.0 mm
09:52 PM 44.7°F7.1°C 26.1°F-3.3°C 48% 4.6 mph NE7.4 kmh NE 8.0 mph12.9 kmh 30.21 in1023.0 mb 0.00 in0.0 mm 0.00 in0.0 mm 0.00 in0.0 mm
09:58 PM 44.5°F6.9°C 25.9°F-3.4°C 48% 5.2 mph NE8.4 kmh NE 8.6 mph13.8 kmh 30.21 in1023.0 mb 0.00 in0.0 mm 0.00 in0.0 mm 0.00 in0.0 mm
10:03 PM 44.1°F6.7°C 26.0°F-3.3°C 49% 7.7 mph NNE12.4 kmh NNE 10.8 mph17.4 kmh 30.21 in1023.0 mb 0.00 in0.0 mm 0.00 in0.0 mm 0.00 in0.0 mm
10:08 PM 44.1°F6.7°C 26.0°F-3.3°C 49% 5.8 mph NNE9.3 kmh NNE 10.8 mph17.4 kmh 30.21 in1023.0 mb 0.00 in0.0 mm 0.00 in0.0 mm 0.00 in0.0 mm
10:13 PM 44.0°F6.7°C 25.9°F-3.4°C 49% 3.8 mph NE6.1 kmh NE 9.4 mph15.1 kmh 30.21 in1023.0 mb 0.00 in0.0 mm 0.00 in0.0 mm 0.00 in0.0 mm
10:18 PM 43.6°F6.4°C 25.6°F-3.6°C 49% 5.0 mph NE8.0 kmh NE 7.6 mph12.2 kmh 30.21 in1023.0 mb 0.00 in0.0 mm 0.00 in0.0 mm 0.00 in0.0 mm
10:23 PM 43.4°F6.3°C 25.4°F-3.7°C 49% 3.6 mph NE5.8 kmh NE 7.6 mph12.2 kmh 30.21 in1023.0 mb 0.00 in0.0 mm 0.00 in0.0 mm 0.00 in0.0 mm
10:28 PM 43.2°F6.2°C 25.2°F-3.8°C 49% 3.9 mph N6.3 kmh N 7.2 mph11.6 kmh 30.21 in1023.0 mb 0.00 in0.0 mm 0.00 in0.0 mm 0.00 in0.0 mm
10:33 PM 43.2°F6.2°C 25.2°F-3.8°C 49% 4.7 mph N7.6 kmh N 8.0 mph12.9 kmh 30.21 in1023.0 mb 0.00 in0.0 mm 0.00 in0.0 mm 0.00 in0.0 mm
10:40 PM 43.2°F6.2°C 25.7°F-3.5°C 50% 5.3 mph NNE8.5 kmh NNE 11.2 mph18.0 kmh 30.21 in1023.0 mb 0.00 in0.0 mm 0.00 in0.0 mm 0.00 in0.0 mm
10:45 PM 43.2°F6.2°C 25.7°F-3.5°C 50% 6.3 mph N10.1 kmh N 11.2 mph18.0 kmh 30.21 in1023.0 mb 0.00 in0.0 mm 0.00 in0.0 mm 0.00 in0.0 mm
10:50 PM 43.2°F6.2°C 25.7°F-3.5°C 50% 6.2 mph N10.0 kmh N 11.2 mph18.0 kmh 30.21 in1023.0 mb 0.00 in0.0 mm 0.00 in0.0 mm 0.00 in0.0 mm
10:55 PM 42.9°F6.1°C 25.9°F-3.4°C 51% 6.0 mph NNE9.7 kmh NNE 11.2 mph18.0 kmh 30.21 in1023.0 mb 0.00 in0.0 mm 0.00 in0.0 mm 0.00 in0.0 mm
11:01 PM 42.9°F6.1°C 25.9°F-3.4°C 51% 4.9 mph N7.9 kmh N 12.6 mph20.3 kmh 30.21 in1023.0 mb 0.00 in0.0 mm 0.00 in0.0 mm 0.00 in0.0 mm
11:06 PM 42.7°F5.9°C 25.2°F-3.8°C 50% 3.5 mph NNE5.6 kmh NNE 12.6 mph20.3 kmh 30.21 in1023.0 mb 0.00 in0.0 mm 0.00 in0.0 mm 0.00 in0.0 mm
11:11 PM 42.5°F5.8°C 25.5°F-3.6°C 51% 2.7 mph ENE4.3 kmh ENE 6.8 mph10.9 kmh 30.21 in1023.0 mb 0.00 in0.0 mm 0.00 in0.0 mm 0.00 in0.0 mm
11:16 PM 42.2°F5.7°C 25.3°F-3.7°C 51% 4.7 mph NNE7.6 kmh NNE 6.8 mph10.9 kmh 30.21 in1023.0 mb 0.00 in0.0 mm 0.00 in0.0 mm 0.00 in0.0 mm
11:21 PM 42.2°F5.7°C 25.3°F-3.7°C 51% 5.6 mph NE9.0 kmh NE 7.2 mph11.6 kmh 30.21 in1023.0 mb 0.00 in0.0 mm 0.00 in0.0 mm 0.00 in0.0 mm
11:26 PM 42.2°F5.7°C 25.7°F-3.5°C 52% 7.9 mph NNE12.7 kmh NNE 12.6 mph20.3 kmh 30.21 in1023.0 mb 0.00 in0.0 mm 0.00 in0.0 mm 0.00 in0.0 mm
11:31 PM 42.2°F5.7°C 26.2°F-3.2°C 53% 8.5 mph NNE13.7 kmh NNE 12.6 mph20.3 kmh 30.21 in1023.0 mb 0.00 in0.0 mm 0.00 in0.0 mm 0.00 in0.0 mm
11:36 PM 42.3°F5.7°C 26.3°F-3.2°C 53% 8.9 mph N14.3 kmh N 14.4 mph23.2 kmh 30.21 in1023.0 mb 0.00 in0.0 mm 0.00 in0.0 mm 0.00 in0.0 mm
11:41 PM 42.3°F5.7°C 26.3°F-3.2°C 53% 6.7 mph N10.8 kmh N 17.4 mph28.0 kmh 30.21 in1023.0 mb 0.00 in0.0 mm 0.00 in0.0 mm 0.00 in0.0 mm
11:46 PM 42.3°F5.7°C 26.3°F-3.2°C 53% 7.9 mph N12.7 kmh N 17.4 mph28.0 kmh 30.21 in1023.0 mb 0.00 in0.0 mm 0.00 in0.0 mm 0.00 in0.0 mm
11:51 PM 42.2°F5.7°C 26.2°F-3.2°C 53% 5.1 mph N8.2 kmh N 12.6 mph20.3 kmh 30.21 in1023.0 mb 0.00 in0.0 mm 0.00 in0.0 mm 0.00 in0.0 mm
11:56 PM 42.0°F5.6°C 25.6°F-3.6°C 52% 3.4 mph ENE5.5 kmh ENE 9.8 mph15.8 kmh 30.21 in1023.0 mb 0.00 in0.0 mm 0.00 in0.0 mm 0.00 in0.0 mm